createdAt,value
2018-11-02T00:01:07.693Z,14.23
2018-11-02T00:03:35.149Z,18.80
2018-11-02T00:06:02.546Z,17.80
2018-11-02T00:08:29.921Z,22.70
2018-11-02T00:10:57.315Z,63.40
2018-11-02T00:13:24.832Z,18.57
2018-11-02T00:15:52.249Z,17.60
2018-11-02T00:18:19.647Z,14.13
2018-11-02T00:20:47.006Z,15.30
2018-11-02T00:23:14.369Z,17.30
2018-11-02T00:25:42.617Z,42.73
2018-11-02T00:28:10.021Z,36.23
2018-11-02T00:30:37.408Z,23.47
2018-11-02T00:33:04.835Z,20.53
2018-11-02T00:35:32.260Z,18.17
2018-11-02T00:37:59.669Z,18.00
2018-11-02T00:40:27.199Z,17.40
2018-11-02T00:42:54.573Z,17.73
2018-11-02T00:45:21.957Z,24.70
2018-11-02T00:47:49.385Z,47.60
2018-11-02T00:54:52.553Z,32.77
2018-11-02T00:57:19.928Z,20.30
2018-11-02T00:59:47.306Z,16.60
2018-11-02T01:02:14.700Z,23.30
2018-11-02T01:04:42.067Z,16.63
2018-11-02T01:07:09.506Z,48.77
2018-11-02T01:09:37.125Z,41.40
2018-11-02T01:12:05.045Z,23.77
2018-11-02T01:14:32.417Z,17.77
2018-11-02T01:16:59.917Z,24.63
2018-11-02T01:19:33.173Z,21.90
2018-11-02T01:22:01.165Z,15.70
2018-11-02T01:24:28.717Z,13.33
2018-11-02T01:26:56.379Z,16.30
2018-11-02T01:29:23.837Z,12.37
2018-11-02T01:31:51.467Z,20.20
2018-11-02T01:34:18.859Z,18.80
2018-11-02T01:36:46.273Z,10.87
2018-11-02T01:39:13.656Z,16.60
2018-11-02T01:41:41.097Z,14.40
2018-11-02T01:44:08.504Z,12.00
2018-11-02T01:46:35.909Z,13.80
2018-11-02T01:49:03.326Z,20.00
2018-11-02T01:51:30.764Z,15.57
2018-11-02T01:53:58.152Z,16.90
2018-11-02T01:56:25.633Z,17.93
2018-11-02T01:58:53.039Z,16.40
2018-11-02T02:01:20.515Z,17.67
2018-11-02T02:03:47.904Z,16.70
2018-11-02T02:06:15.316Z,16.37
2018-11-02T02:08:42.793Z,19.70
2018-11-02T02:11:10.449Z,15.53
2018-11-02T02:13:37.874Z,21.27
2018-11-02T02:16:05.471Z,19.90
2018-11-02T02:18:32.861Z,19.17
2018-11-02T02:21:00.272Z,15.97
2018-11-02T02:23:27.653Z,19.83
2018-11-02T02:25:55.016Z,19.40
2018-11-02T02:28:22.427Z,13.80
2018-11-02T02:30:49.816Z,13.53
2018-11-02T02:33:17.298Z,21.27
2018-11-02T02:35:44.705Z,12.47
2018-11-02T02:38:12.094Z,17.43
2018-11-02T02:40:39.468Z,18.10
2018-11-02T02:43:06.869Z,21.00
2018-11-02T02:45:34.245Z,20.20
2018-11-02T02:48:01.621Z,15.93
2018-11-02T02:50:29.068Z,25.43
2018-11-02T02:52:56.441Z,14.53
2018-11-02T02:55:23.833Z,15.87
2018-11-02T02:57:51.229Z,13.90
2018-11-02T03:00:18.617Z,18.77
2018-11-02T03:02:46.031Z,25.87
2018-11-02T03:05:13.444Z,21.87
2018-11-02T03:07:41.368Z,25.27
2018-11-02T03:10:09.042Z,24.53
2018-11-02T03:12:36.644Z,20.07
2018-11-02T03:15:04.411Z,14.37
2018-11-02T03:17:31.787Z,27.73
2018-11-02T03:19:59.191Z,15.47
2018-11-02T03:22:26.602Z,22.67
2018-11-02T03:24:54.020Z,21.63
2018-11-02T03:27:21.489Z,20.60
2018-11-02T03:29:48.908Z,19.83
2018-11-02T03:32:16.301Z,17.60
2018-11-02T03:34:43.708Z,22.57
2018-11-02T03:37:11.110Z,16.10
2018-11-02T03:39:38.505Z,18.20
2018-11-02T03:42:06.230Z,22.73
2018-11-02T03:44:33.636Z,21.40
2018-11-02T03:47:01.028Z,23.40
2018-11-02T03:49:28.499Z,22.50
2018-11-02T03:51:55.996Z,17.57
2018-11-02T03:54:23.370Z,19.93
2018-11-02T03:56:51.130Z,23.87
2018-11-02T03:59:18.372Z,18.23
2018-11-02T04:01:45.737Z,19.00
2018-11-02T04:04:13.164Z,19.43
2018-11-02T04:06:40.561Z,15.07
2018-11-02T04:09:08.479Z,26.63
2018-11-02T04:11:35.964Z,18.73
2018-11-02T04:14:03.400Z,22.90
2018-11-02T04:16:30.770Z,24.37
2018-11-02T04:18:58.185Z,22.37
2018-11-02T04:21:25.557Z,17.57
2018-11-02T04:23:52.939Z,13.47
2018-11-02T04:26:20.362Z,19.87
2018-11-02T04:28:47.737Z,18.80
2018-11-02T04:31:15.133Z,20.20
2018-11-02T04:33:42.873Z,19.03
2018-11-02T04:36:10.259Z,13.67
2018-11-02T04:38:37.649Z,13.67
2018-11-02T04:41:05.075Z,20.73
2018-11-02T04:43:32.477Z,19.23
2018-11-02T04:45:59.861Z,18.43
2018-11-02T04:48:27.272Z,15.80
2018-11-02T04:50:54.686Z,16.67
2018-11-02T04:53:22.055Z,15.47
2018-11-02T04:55:49.487Z,21.17
2018-11-02T04:58:16.890Z,15.23
2018-11-02T05:00:44.288Z,18.10
2018-11-02T05:03:11.706Z,22.13
2018-11-02T05:05:39.070Z,20.40
2018-11-02T05:08:06.430Z,10.07
2018-11-02T05:10:33.862Z,17.10
2018-11-02T05:13:01.315Z,10.97
2018-11-02T05:15:28.678Z,18.47
2018-11-02T05:17:56.309Z,21.10
2018-11-02T05:20:23.690Z,15.87
2018-11-02T05:22:51.070Z,19.57
2018-11-02T05:25:18.465Z,19.40
2018-11-02T05:27:45.832Z,15.47
2018-11-02T05:30:13.264Z,16.57
2018-11-02T05:32:40.810Z,14.23
2018-11-02T05:35:08.244Z,22.80
2018-11-02T05:38:38.912Z,19.67
2018-11-02T05:41:06.284Z,17.00
2018-11-02T05:43:33.669Z,18.87
2018-11-02T05:46:01.057Z,21.07
2018-11-02T05:48:28.456Z,19.33
2018-11-02T05:50:55.837Z,22.03
2018-11-02T05:53:23.293Z,22.90
2018-11-02T05:55:50.750Z,17.03
2018-11-02T05:58:18.133Z,19.30
2018-11-02T06:00:45.541Z,17.57
2018-11-02T06:03:12.919Z,18.03
2018-11-02T06:05:40.313Z,13.13
2018-11-02T06:08:07.731Z,24.40
2018-11-02T06:10:35.085Z,16.07
2018-11-02T06:13:02.443Z,20.67
2018-11-02T06:15:29.840Z,29.23
2018-11-02T06:17:57.296Z,34.70
2018-11-02T06:20:24.823Z,24.33
2018-11-02T06:22:52.229Z,27.97
2018-11-02T06:25:19.625Z,27.50
2018-11-02T06:27:46.997Z,24.83
2018-11-02T06:30:14.405Z,17.00
2018-11-02T06:32:41.874Z,27.90
2018-11-02T06:35:09.678Z,20.93
2018-11-02T06:37:37.074Z,20.43
2018-11-02T06:40:04.620Z,20.27
2018-11-02T06:42:31.993Z,22.13
2018-11-02T06:44:59.517Z,25.17
2018-11-02T06:47:26.817Z,18.07
2018-11-02T06:49:54.181Z,21.43
2018-11-02T06:52:21.585Z,28.77
2018-11-02T06:54:48.956Z,29.57
2018-11-02T06:57:16.329Z,24.80
2018-11-02T06:59:44.002Z,27.40
2018-11-02T07:02:11.229Z,465.33
2018-11-02T07:04:38.604Z,286.23
2018-11-02T07:07:06.138Z,143.10
2018-11-02T07:09:33.469Z,71.43
2018-11-02T07:12:00.833Z,38.83
2018-11-02T07:14:28.277Z,44.10
2018-11-02T07:16:55.672Z,39.57
2018-11-02T07:19:23.049Z,36.03
2018-11-02T07:21:50.489Z,28.93
2018-11-02T07:24:17.864Z,22.20
2018-11-02T07:26:45.333Z,23.43
2018-11-02T07:29:12.733Z,18.30
2018-11-02T07:31:40.125Z,21.73
2018-11-02T07:34:07.850Z,22.43
2018-11-02T07:36:35.324Z,25.63
2018-11-02T07:39:02.916Z,21.23
2018-11-02T07:41:30.228Z,16.43
2018-11-02T07:43:57.643Z,15.60
2018-11-02T07:46:25.032Z,22.37
2018-11-02T07:48:52.483Z,14.90
2018-11-02T07:51:20.014Z,26.93
2018-11-02T07:53:47.386Z,20.87
2018-11-02T07:56:14.808Z,27.43
2018-11-02T07:58:42.313Z,25.23
2018-11-02T08:01:09.738Z,24.47
2018-11-02T08:03:37.121Z,24.77
2018-11-02T08:06:04.597Z,23.60
2018-11-02T08:08:31.969Z,25.40
2018-11-02T08:10:59.375Z,24.57
2018-11-02T08:13:26.919Z,22.77
2018-11-02T08:15:54.285Z,21.33
2018-11-02T08:18:21.684Z,20.53
2018-11-02T08:20:49.063Z,20.10
2018-11-02T08:23:16.424Z,16.77
2018-11-02T08:25:43.815Z,26.63
2018-11-02T08:28:11.193Z,29.63
2018-11-02T08:30:38.569Z,24.80
2018-11-02T08:33:05.943Z,14.77
2018-11-02T08:35:33.337Z,12.23
2018-11-02T08:38:00.677Z,10.57
2018-11-02T08:40:28.040Z,20.53
2018-11-02T08:42:55.429Z,13.40
2018-11-02T08:45:22.816Z,14.33
2018-11-02T08:47:50.183Z,8.77
2018-11-02T08:50:17.566Z,4.10
2018-11-02T08:52:45.013Z,10.00
2018-11-02T08:55:12.388Z,8.33
2018-11-02T08:57:40.148Z,8.83
2018-11-02T09:00:08.383Z,3.30
2018-11-02T09:02:35.723Z,6.57
2018-11-02T09:05:03.200Z,9.57
2018-11-02T09:07:30.501Z,4.83
2018-11-02T09:09:57.897Z,6.33
2018-11-02T09:12:25.349Z,5.63
2018-11-02T09:14:52.708Z,4.57
2018-11-02T09:17:20.066Z,7.73
2018-11-02T09:19:47.557Z,5.50
2018-11-02T09:22:14.909Z,9.50
2018-11-02T09:24:42.269Z,9.07
2018-11-02T09:27:09.653Z,11.80
2018-11-02T09:29:37.039Z,7.70
2018-11-02T09:32:04.398Z,7.33
2018-11-02T09:34:31.770Z,8.67
2018-11-02T09:36:59.149Z,12.57
2018-11-02T09:39:26.509Z,7.47
2018-11-02T09:41:53.929Z,7.90
2018-11-02T09:44:21.365Z,11.23
2018-11-02T09:46:48.744Z,6.50
2018-11-02T09:49:16.165Z,8.07
2018-11-02T09:51:43.587Z,5.43
2018-11-02T09:54:10.896Z,8.23
2018-11-02T09:56:38.305Z,7.70
2018-11-02T09:59:05.700Z,9.87
2018-11-02T10:01:33.314Z,6.03
2018-11-02T10:04:00.685Z,6.10
2018-11-02T10:06:28.129Z,10.80
2018-11-02T10:08:55.497Z,6.67
2018-11-02T10:11:22.913Z,5.80
2018-11-02T10:13:50.325Z,5.70
2018-11-02T10:16:17.757Z,10.20
2018-11-02T10:18:45.132Z,5.73
2018-11-02T10:21:12.525Z,4.13
2018-11-02T10:23:39.939Z,4.73
2018-11-02T10:26:07.345Z,7.43
2018-11-02T10:28:34.765Z,5.40
2018-11-02T10:31:02.137Z,5.93
2018-11-02T10:33:29.589Z,7.27
2018-11-02T10:35:57.346Z,5.10
2018-11-02T10:38:24.699Z,7.20
2018-11-02T10:40:53.297Z,7.90
2018-11-02T10:43:20.936Z,6.37
2018-11-02T10:45:48.952Z,2.40
2018-11-02T10:48:16.581Z,6.43
2018-11-02T10:50:44.144Z,4.93
2018-11-02T10:53:11.589Z,5.37
2018-11-02T10:55:39.005Z,9.47
2018-11-02T10:58:06.416Z,10.57
2018-11-02T11:00:39.414Z,3.17
2018-11-02T11:03:06.679Z,4.43
2018-11-02T11:05:34.155Z,4.77
2018-11-02T11:08:01.571Z,8.57
2018-11-02T11:10:28.988Z,8.70
2018-11-02T11:12:56.570Z,7.00
2018-11-02T11:15:23.778Z,4.50
2018-11-02T11:17:51.141Z,9.47
2018-11-02T11:20:18.509Z,6.27
2018-11-02T11:22:45.917Z,9.70
2018-11-02T11:25:14.689Z,8.80
2018-11-02T11:27:42.228Z,4.77
2018-11-02T11:30:12.709Z,6.73
2018-11-02T11:32:40.093Z,9.00
2018-11-02T11:35:08.418Z,7.00
2018-11-02T11:37:35.829Z,8.63
2018-11-02T11:40:03.294Z,14.57
2018-11-02T11:42:30.656Z,6.53
2018-11-02T11:44:58.037Z,10.53
2018-11-02T11:47:25.425Z,19.97
2018-11-02T11:49:52.781Z,4.63
2018-11-02T11:52:20.197Z,6.83
2018-11-02T11:54:47.612Z,8.50
2018-11-02T11:57:14.996Z,4.90
2018-11-02T11:59:42.401Z,5.23
2018-11-02T12:02:09.793Z,12.13
2018-11-02T12:04:38.161Z,8.23
2018-11-02T12:07:05.589Z,7.27
2018-11-02T12:09:32.993Z,6.97
2018-11-02T12:12:00.376Z,3.33
2018-11-02T12:14:27.798Z,4.13
2018-11-02T12:16:55.170Z,2.27
2018-11-02T12:19:22.537Z,3.27
2018-11-02T12:21:50.034Z,7.10
2018-11-02T12:24:17.340Z,4.83
2018-11-02T12:26:44.740Z,4.33
2018-11-02T12:29:12.326Z,6.13
2018-11-02T12:31:40.467Z,6.03
2018-11-02T12:34:07.881Z,16.60
2018-11-02T12:36:35.270Z,10.97
2018-11-02T12:39:02.736Z,11.17
2018-11-02T12:41:30.109Z,4.80
2018-11-02T12:43:57.555Z,8.37
2018-11-02T12:46:24.917Z,10.97
2018-11-02T12:48:52.449Z,8.23
2018-11-02T12:51:19.676Z,5.93
2018-11-02T12:53:47.056Z,5.50
2018-11-02T12:56:14.655Z,3.97
2018-11-02T12:58:42.264Z,6.47
2018-11-02T13:01:09.637Z,4.93
2018-11-02T13:03:36.997Z,4.47
2018-11-02T13:06:04.869Z,4.83
2018-11-02T13:08:32.237Z,7.60
2018-11-02T13:10:59.595Z,3.53
2018-11-02T13:13:27.101Z,3.30
2018-11-02T13:15:54.477Z,5.00
2018-11-02T13:18:21.851Z,8.37
2018-11-02T13:20:49.338Z,4.97
2018-11-02T13:23:16.693Z,7.90
2018-11-02T13:25:44.187Z,5.07
2018-11-02T13:28:11.520Z,4.70
2018-11-02T13:30:39.147Z,6.03
2018-11-02T13:33:06.433Z,6.60
2018-11-02T13:35:33.833Z,4.43
2018-11-02T13:38:01.205Z,4.93
2018-11-02T13:40:28.561Z,4.53
2018-11-02T13:42:56.144Z,3.97
2018-11-02T13:45:23.472Z,9.23
2018-11-02T13:47:50.849Z,5.87
2018-11-02T13:50:18.296Z,4.53
2018-11-02T13:52:45.864Z,23.37
2018-11-02T13:55:13.689Z,13.23
2018-11-02T13:57:41.500Z,8.43
2018-11-02T14:00:10.443Z,12.63
2018-11-02T14:02:37.877Z,9.17
2018-11-02T14:05:06.126Z,12.20
2018-11-02T14:07:33.509Z,20.93
2018-11-02T14:10:00.889Z,12.13
2018-11-02T14:12:28.301Z,10.87
2018-11-02T14:14:55.665Z,8.00
2018-11-02T14:17:23.077Z,16.77
2018-11-02T14:19:50.489Z,11.97
2018-11-02T14:22:17.852Z,9.77
2018-11-02T14:24:45.248Z,4.70
2018-11-02T14:27:12.660Z,5.90
2018-11-02T14:29:40.207Z,4.13
2018-11-02T14:32:07.140Z,10.80
2018-11-02T14:34:34.876Z,6.00
2018-11-02T14:37:02.254Z,4.50
2018-11-02T14:39:29.637Z,6.60
2018-11-02T14:41:57.073Z,12.50
2018-11-02T14:44:24.492Z,12.70
2018-11-02T14:46:51.893Z,15.73
2018-11-02T14:49:19.285Z,12.87
2018-11-02T14:51:46.684Z,15.17
2018-11-02T14:54:14.087Z,9.27
2018-11-02T14:56:41.497Z,15.57
2018-11-02T14:59:08.943Z,15.67
2018-11-02T15:01:36.381Z,16.13
2018-11-02T15:04:03.795Z,24.27
2018-11-02T15:06:31.176Z,51.63
2018-11-02T15:08:58.582Z,55.03
2018-11-02T15:11:26.115Z,40.20
2018-11-02T15:13:53.791Z,50.47
2018-11-02T15:16:21.302Z,24.47
2018-11-02T15:18:48.757Z,47.40
2018-11-02T15:21:16.116Z,14.00
2018-11-02T15:23:43.491Z,12.83
2018-11-02T15:26:10.972Z,11.93
2018-11-02T15:28:38.353Z,32.53
2018-11-02T15:31:05.762Z,42.03
2018-11-02T15:33:33.176Z,48.57
2018-11-02T15:36:00.552Z,37.53
2018-11-02T15:38:27.929Z,19.43
2018-11-02T15:40:55.369Z,23.37
2018-11-02T15:43:22.816Z,160.27
2018-11-02T15:45:50.217Z,210.07
2018-11-02T15:48:17.677Z,173.93
2018-11-02T15:50:45.073Z,266.67
2018-11-02T15:53:12.497Z,327.77
2018-11-02T15:55:39.893Z,222.80
2018-11-02T15:58:07.301Z,264.20
2018-11-02T16:00:34.784Z,323.43
2018-11-02T16:03:04.357Z,124.63
2018-11-02T16:05:31.732Z,121.57
2018-11-02T16:07:59.116Z,143.23
2018-11-02T16:10:26.541Z,314.20
2018-11-02T16:12:53.909Z,196.93
2018-11-02T16:15:21.316Z,199.53
2018-11-02T16:17:48.802Z,250.43
2018-11-02T16:20:16.470Z,134.23
2018-11-02T16:22:44.426Z,55.83
2018-11-02T16:25:12.236Z,24.57
2018-11-02T16:27:39.741Z,25.93
2018-11-02T16:30:07.573Z,103.80
2018-11-02T16:32:35.129Z,164.63
2018-11-02T16:35:02.513Z,135.60
2018-11-02T16:37:29.944Z,81.07
2018-11-02T16:39:57.353Z,91.17
2018-11-02T16:42:25.171Z,128.07
2018-11-02T16:44:52.656Z,115.20
2018-11-02T16:47:19.993Z,97.47
2018-11-02T16:49:47.361Z,96.97
2018-11-02T16:52:14.750Z,74.13
2018-11-02T16:54:42.237Z,70.97
2018-11-02T16:57:09.550Z,75.50
2018-11-02T16:59:36.939Z,62.53
2018-11-02T17:02:04.344Z,81.90
2018-11-02T17:04:31.737Z,85.77
2018-11-02T17:06:59.146Z,110.10
2018-11-02T17:09:26.554Z,83.60
2018-11-02T17:11:53.964Z,66.87
2018-11-02T17:14:21.356Z,44.00
2018-11-02T17:16:48.781Z,33.30
2018-11-02T17:19:16.190Z,39.93
2018-11-02T17:21:43.623Z,61.80
2018-11-02T17:24:10.978Z,78.37
2018-11-02T17:26:38.373Z,60.67
2018-11-02T17:29:06.165Z,53.27
2018-11-02T17:31:33.586Z,28.67
2018-11-02T17:34:01.141Z,40.03
2018-11-02T17:36:28.604Z,37.03
2018-11-02T17:38:56.029Z,39.23
2018-11-02T17:41:23.405Z,30.73
2018-11-02T17:43:50.948Z,40.57
2018-11-02T17:46:18.350Z,32.80
2018-11-02T17:48:45.725Z,36.30
2018-11-02T17:51:13.129Z,30.93
2018-11-02T17:53:40.572Z,34.43
2018-11-02T17:56:07.963Z,31.03
2018-11-02T17:58:35.334Z,42.00
2018-11-02T18:01:02.813Z,43.30
2018-11-02T18:03:30.217Z,52.43
2018-11-02T18:05:57.765Z,84.00
2018-11-02T18:08:25.194Z,122.23
2018-11-02T18:10:52.632Z,85.07
2018-11-02T18:13:20.108Z,62.77
2018-11-02T18:15:47.522Z,44.30
2018-11-02T18:18:14.937Z,36.73
2018-11-02T18:20:42.300Z,32.50
2018-11-02T18:23:09.729Z,45.33
2018-11-02T18:25:37.129Z,44.77
2018-11-02T18:28:04.814Z,43.43
2018-11-02T18:30:32.232Z,38.83
2018-11-02T18:32:59.605Z,34.93
2018-11-02T18:35:27.059Z,45.53
2018-11-02T18:37:54.463Z,34.50
2018-11-02T18:40:21.969Z,33.37
2018-11-02T18:42:49.365Z,37.50
2018-11-02T18:45:16.769Z,36.60
2018-11-02T18:47:49.395Z,32.47
2018-11-02T18:50:19.033Z,35.03
2018-11-02T18:52:47.138Z,31.50
2018-11-02T18:55:14.711Z,50.47
2018-11-02T18:57:42.209Z,45.43
2018-11-02T19:03:39.773Z,35.83
2018-11-02T19:06:07.163Z,43.97
2018-11-02T19:08:34.543Z,37.70
2018-11-02T19:11:02.049Z,37.77
2018-11-02T19:13:29.494Z,36.33
2018-11-02T19:15:56.946Z,32.60
2018-11-02T19:18:24.271Z,31.17
2018-11-02T19:20:51.653Z,36.37
2018-11-02T19:23:19.016Z,32.57
2018-11-02T19:25:46.420Z,35.73
2018-11-02T19:28:13.844Z,30.57
2018-11-02T19:30:41.245Z,38.07
2018-11-02T19:33:09.505Z,35.33
2018-11-02T19:35:36.999Z,64.40
2018-11-02T19:38:04.648Z,47.37
2018-11-02T19:40:31.936Z,48.97
2018-11-02T19:42:59.306Z,41.77
2018-11-02T19:45:26.761Z,38.73
2018-11-02T19:47:59.510Z,40.77
2018-11-02T19:50:26.922Z,54.10
2018-11-02T19:52:54.305Z,47.53
2018-11-02T19:55:22.162Z,39.57
2018-11-02T19:57:49.453Z,38.70
2018-11-02T20:00:17.363Z,42.30
2018-11-02T20:02:44.882Z,37.20
2018-11-02T20:05:13.920Z,43.90
2018-11-02T20:07:41.889Z,40.70
2018-11-02T20:10:10.112Z,35.77
2018-11-02T20:12:37.527Z,40.67
2018-11-02T20:15:05.634Z,45.00
2018-11-02T20:17:33.063Z,50.43
2018-11-02T20:20:00.426Z,40.47
2018-11-02T20:22:27.817Z,37.50
2018-11-02T20:24:55.213Z,34.57
2018-11-02T20:27:22.644Z,54.50
2018-11-02T20:29:50.031Z,59.17
2018-11-02T20:32:17.465Z,59.43
2018-11-02T20:34:44.825Z,45.30
2018-11-02T20:37:12.305Z,35.80
2018-11-02T20:39:39.842Z,36.57
2018-11-02T20:42:07.575Z,40.63
2018-11-02T20:44:34.975Z,36.10
2018-11-02T20:47:02.368Z,34.17
2018-11-02T20:49:29.737Z,35.23
2018-11-02T20:51:57.134Z,43.60
2018-11-02T20:54:24.559Z,36.30
2018-11-02T20:56:51.955Z,33.03
2018-11-02T20:59:19.317Z,33.83
2018-11-02T21:01:46.733Z,33.87
2018-11-02T21:04:14.109Z,33.53
2018-11-02T21:06:41.498Z,35.00
2018-11-02T21:09:09.581Z,34.83
2018-11-02T21:18:22.298Z,37.93
2018-11-02T21:20:49.697Z,38.57
2018-11-02T21:23:17.057Z,35.53
2018-11-02T21:25:44.554Z,29.10
2018-11-02T21:28:11.933Z,33.87
2018-11-02T21:30:39.313Z,33.30
2018-11-02T21:33:06.724Z,36.53
2018-11-02T21:35:34.113Z,32.67
2018-11-02T21:38:01.567Z,30.50
2018-11-02T21:40:28.937Z,35.03
2018-11-02T21:42:56.319Z,39.43
2018-11-02T21:45:24.347Z,31.20
2018-11-02T21:47:51.772Z,31.90
2018-11-02T21:50:19.532Z,37.73
2018-11-02T21:52:46.937Z,37.30
2018-11-02T21:57:48.792Z,31.70
2018-11-02T22:00:17.754Z,30.83
2018-11-02T22:02:45.260Z,28.53
2018-11-02T22:05:13.094Z,28.43
2018-11-02T22:07:40.924Z,26.10
2018-11-02T22:10:08.849Z,24.20
2018-11-02T22:12:36.533Z,25.53
2018-11-02T22:15:04.153Z,23.17
2018-11-02T22:17:31.540Z,25.90
2018-11-02T22:19:58.925Z,23.87
2018-11-02T22:22:26.318Z,21.47
2018-11-02T22:24:53.700Z,21.07
2018-11-02T22:27:21.154Z,26.33
2018-11-02T22:29:48.512Z,23.83
2018-11-02T22:32:15.952Z,21.00
2018-11-02T22:34:43.396Z,22.00
2018-11-02T22:37:10.882Z,23.67
2018-11-02T22:39:38.261Z,21.00
2018-11-02T22:42:05.672Z,23.93
2018-11-02T22:44:33.078Z,22.40
2018-11-02T22:47:00.475Z,23.27
2018-11-02T22:49:27.849Z,22.10
2018-11-02T22:51:55.304Z,25.40
2018-11-02T22:54:22.728Z,24.73
2018-11-02T22:56:50.214Z,21.30
2018-11-02T22:59:17.633Z,19.67
2018-11-02T23:01:45.025Z,18.10
2018-11-02T23:04:12.447Z,17.73
2018-11-02T23:06:39.877Z,21.20
2018-11-02T23:09:08.154Z,27.27
2018-11-02T23:11:35.617Z,22.53
2018-11-02T23:14:03.325Z,24.77
2018-11-02T23:16:30.804Z,23.43
2018-11-02T23:18:58.224Z,27.47
2018-11-02T23:21:25.649Z,24.27
2018-11-02T23:23:53.054Z,27.30
2018-11-02T23:26:20.448Z,23.43
2018-11-02T23:28:47.876Z,22.80
2018-11-02T23:31:15.257Z,26.63
2018-11-02T23:33:43.057Z,23.43
2018-11-02T23:36:10.477Z,28.63
2018-11-02T23:38:37.863Z,27.20
2018-11-02T23:41:05.428Z,21.83
2018-11-02T23:43:32.845Z,25.53
2018-11-02T23:46:00.236Z,26.13
2018-11-02T23:48:27.621Z,24.27
2018-11-02T23:50:55.030Z,29.80
2018-11-02T23:53:22.436Z,27.13
2018-11-02T23:55:49.857Z,31.33
2018-11-02T23:58:17.380Z,30.70
